Time;durP1;ratioP1;P1;durP2;ratioP2;P2;SDS_P1;SDS_P2;PMS_P1;PMS_P2;Temp;Humidity;BMP_temperature;BMP_pressure;BME280_temperature;BME280_humidity;BME280_pressure;Samples;Min_cycle;Max_cycle;Signal;HPM_P1;HPM_P2
2022/03/04 00:00:44;;;;;;;91.95;43.67;;;;;;;1.70;57.16;94667.38;4902973;29;20543;-76
2022/03/04 00:03:10;;;;;;;75.72;37.70;;;;;;;1.64;57.58;94665.56;4902964;29;20040;-75
2022/03/04 00:05:35;;;;;;;82.28;36.00;;;;;;;1.60;57.86;94664.31;4886867;29;20092;-75
2022/03/04 00:08:01;;;;;;;76.15;37.30;;;;;;;1.67;57.72;94672.88;4894792;29;20040;-75
2022/03/04 00:10:26;;;;;;;72.43;39.15;;;;;;;1.69;57.82;94675.25;4903149;29;20412;-75
2022/03/04 00:12:53;;;;;;;75.20;38.65;;;;;;;1.66;58.07;94671.28;4903353;29;20432;-75
2022/03/04 00:15:19;;;;;;;73.72;37.10;;;;;;;1.62;57.91;94667.47;4887406;29;20052;-75
2022/03/04 00:17:45;;;;;;;69.63;37.00;;;;;;;1.66;57.73;94673.84;4902718;29;20032;-75
2022/03/04 00:20:10;;;;;;;76.55;39.65;;;;;;;1.68;58.54;94671.09;4904816;29;20067;-75
2022/03/04 00:23:01;;;;;;;79.00;40.17;;;;;;;1.71;58.11;94671.53;4904319;29;20590;-75
2022/03/04 00:25:27;;;;;;;85.28;46.90;;;;;;;1.70;57.92;94669.16;4917701;29;20040;-75
2022/03/04 00:27:52;;;;;;;104.93;58.17;;;;;;;1.68;57.99;94663.41;4887539;29;20043;-75
2022/03/04 00:30:18;;;;;;;103.10;54.80;;;;;;;1.65;57.80;94662.00;4871309;29;20039;-75
2022/03/04 00:32:44;;;;;;;103.15;56.05;;;;;;;1.69;57.84;94657.31;4902915;29;20028;-76
2022/03/04 00:35:10;;;;;;;101.72;56.65;;;;;;;1.65;58.06;94659.44;4903617;29;20043;-76
2022/03/04 00:37:35;;;;;;;119.85;64.63;;;;;;;1.61;58.26;94660.75;4904029;29;20046;-76
2022/03/04 00:40:01;;;;;;;120.45;68.47;;;;;;;1.60;58.03;94654.03;4905101;29;20544;-75
2022/03/04 00:42:29;;;;;;;125.93;71.45;;;;;;;1.66;58.35;94652.56;4902488;29;20503;-76
2022/03/04 00:44:54;;;;;;;131.20;71.07;;;;;;;1.59;59.11;94662.72;4901880;29;20033;-75
2022/03/04 00:47:20;;;;;;;126.90;71.40;;;;;;;1.61;58.68;94654.84;4902810;29;20087;-75
2022/03/04 00:49:45;;;;;;;134.63;67.15;;;;;;;1.65;58.50;94651.75;4887077;29;20044;-75
2022/03/04 00:52:11;;;;;;;136.55;73.80;;;;;;;1.54;58.42;94664.22;4901962;29;20036;-75
2022/03/04 00:54:48;;;;;;;127.22;71.57;;;;;;;1.46;59.04;94658.25;4886269;29;20024;-75
2022/03/04 00:57:14;;;;;;;132.43;70.30;;;;;;;1.53;58.54;94657.53;4902931;29;20028;-75
2022/03/04 00:59:39;;;;;;;138.05;73.40;;;;;;;1.57;58.59;94651.84;4902916;29;20564;-75
2022/03/04 01:02:05;;;;;;;130.35;69.68;;;;;;;1.54;58.07;94648.88;4904204;29;20032;-75
2022/03/04 01:04:30;;;;;;;138.90;74.13;;;;;;;1.53;58.34;94642.94;4903047;29;20048;-75
2022/03/04 01:06:55;;;;;;;140.13;71.60;;;;;;;1.48;58.19;94640.94;4886465;29;20425;-75
2022/03/04 01:09:21;;;;;;;105.70;55.67;;;;;;;1.48;58.70;94645.25;4903583;29;20047;-75
2022/03/04 01:12:10;;;;;;;92.63;47.67;;;;;;;1.50;58.31;94648.44;4903624;29;20033;-75
2022/03/04 01:14:36;;;;;;;89.13;45.47;;;;;;;1.57;58.28;94641.59;4875939;29;20123;-75
2022/03/04 01:17:01;;;;;;;107.82;50.55;;;;;;;1.49;58.61;94641.72;4903521;29;20025;-75
2022/03/04 01:19:27;;;;;;;86.38;47.50;;;;;;;1.54;58.54;94634.28;4903592;29;20033;-75
2022/03/04 01:21:58;;;;;;;93.25;43.65;;;;;;;1.42;58.22;94631.38;4903268;29;20119;-75
2022/03/04 01:24:24;;;;;;;77.43;40.93;;;;;;;1.42;58.52;94636.50;4901305;29;20119;-75
2022/03/04 01:26:49;;;;;;;70.65;36.80;;;;;;;1.33;58.71;94631.69;4903073;29;20368;-75
2022/03/04 01:29:15;;;;;;;73.57;36.72;;;;;;;1.35;58.83;94625.41;4903098;29;20507;-75
2022/03/04 01:31:40;;;;;;;76.05;40.65;;;;;;;1.36;58.72;94623.63;4901807;29;20062;-75
2022/03/04 01:34:05;;;;;;;91.25;42.88;;;;;;;1.32;58.44;94622.41;4901541;29;20701;-75
2022/03/04 01:36:33;;;;;;;68.47;37.58;;;;;;;1.30;58.03;94612.34;4901080;29;20033;-75
2022/03/04 01:38:59;;;;;;;63.60;34.85;;;;;;;1.33;58.17;94624.00;4901904;29;20033;-75
2022/03/04 01:41:24;;;;;;;74.85;36.33;;;;;;;1.40;57.98;94624.84;4893908;29;20072;-76
2022/03/04 01:43:49;;;;;;;86.10;40.47;;;;;;;1.43;58.24;94611.69;4902135;29;20036;-75
2022/03/04 01:46:17;;;;;;;80.85;41.65;;;;;;;1.52;58.23;94613.16;4908782;29;20496;-75
2022/03/04 01:48:43;;;;;;;81.43;38.50;;;;;;;1.52;57.87;94613.16;4904328;29;20033;-75
2022/03/04 01:51:09;;;;;;;81.47;40.00;;;;;;;1.55;58.23;94619.69;4886447;29;20036;-75
2022/03/04 01:53:34;;;;;;;76.55;40.10;;;;;;;1.55;58.38;94615.38;4910454;29;20055;-75
2022/03/04 01:56:00;;;;;;;75.05;39.28;;;;;;;1.54;58.21;94611.22;4889297;29;20059;-76
2022/03/04 01:58:25;;;;;;;69.85;37.03;;;;;;;1.50;58.18;94617.69;4911908;29;20029;-75
2022/03/04 02:00:51;;;;;;;79.38;41.10;;;;;;;1.52;58.48;94607.25;4889407;29;20047;-75
2022/03/04 02:03:16;;;;;;;119.50;48.47;;;;;;;1.54;58.76;94608.66;4888184;29;20123;-75
2022/03/04 02:05:43;;;;;;;116.13;50.35;;;;;;;1.55;58.62;94597.44;4904002;29;20080;-75
2022/03/04 02:08:08;;;;;;;93.07;47.15;;;;;;;1.49;58.13;94605.84;4904949;29;20082;-75
2022/03/04 02:10:33;;;;;;;87.00;45.40;;;;;;;1.44;58.23;94597.88;4906290;29;20464;-75
2022/03/04 02:12:59;;;;;;;145.48;70.03;;;;;;;1.36;58.46;94601.38;4907054;29;20043;-75
2022/03/04 02:15:25;;;;;;;171.45;86.07;;;;;;;1.34;58.30;94598.19;4906317;29;20032;-75
2022/03/04 02:17:50;;;;;;;175.10;93.18;;;;;;;1.30;58.82;94604.66;4906351;29;20039;-75
2022/03/04 02:20:15;;;;;;;160.90;86.70;;;;;;;1.31;58.67;94608.81;4904411;29;20047;-76
2022/03/04 02:22:41;;;;;;;170.82;93.28;;;;;;;1.27;59.57;94607.56;4888642;29;20044;-75
2022/03/04 02:25:07;;;;;;;136.38;78.68;;;;;;;1.38;58.83;94608.88;4905758;29;20055;-75
2022/03/04 02:27:32;;;;;;;137.48;76.50;;;;;;;1.34;58.53;94597.41;4907686;29;20416;-76
2022/03/04 02:29:59;;;;;;;156.82;78.10;;;;;;;1.29;59.00;94600.47;4904432;29;20024;-75
2022/03/04 02:32:24;;;;;;;158.55;81.03;;;;;;;1.28;58.37;94598.09;4903916;29;20118;-76
2022/03/04 02:34:50;;;;;;;147.50;73.40;;;;;;;1.28;59.10;94592.97;4888196;29;20051;-75
2022/03/04 02:37:18;;;;;;;102.03;48.75;;;;;;;1.29;58.25;94594.56;4905179;29;20043;-75
2022/03/04 02:39:43;;;;;;;95.95;47.83;;;;;;;1.24;59.09;94599.44;4904848;29;20044;-75
2022/03/04 02:42:09;;;;;;;104.57;49.83;;;;;;;1.22;59.44;94593.72;4888998;29;20117;-75
2022/03/04 02:44:34;;;;;;;84.38;40.53;;;;;;;1.24;59.29;94595.13;4904192;29;20020;-75
2022/03/04 02:46:59;;;;;;;81.93;42.90;;;;;;;1.30;59.22;94591.03;4905410;29;20033;-75
2022/03/04 02:49:25;;;;;;;105.53;49.42;;;;;;;1.25;58.71;94588.22;4904473;29;20408;-75
2022/03/04 02:51:50;;;;;;;90.93;43.67;;;;;;;1.28;58.69;94587.84;4905139;29;20492;-75
2022/03/04 02:54:16;;;;;;;75.47;38.33;;;;;;;1.25;59.36;94586.44;4904997;29;20036;-75
2022/03/04 02:56:56;;;;;;;80.18;38.88;;;;;;;1.32;58.91;94594.22;4904552;29;20043;-75
2022/03/04 02:59:21;;;;;;;63.33;36.05;;;;;;;1.32;57.99;94591.66;4904699;29;20039;-74
2022/03/04 03:01:53;;;;;;;70.85;33.22;;;;;;;1.30;58.08;94591.03;4905659;29;20043;-75
2022/03/04 03:04:19;;;;;;;59.70;33.17;;;;;;;1.20;57.95;94602.38;4887702;29;20178;-75
2022/03/04 03:06:45;;;;;;;68.13;34.88;;;;;;;1.21;57.76;94590.34;4904083;29;20047;-75
2022/03/04 03:09:10;;;;;;;70.15;34.45;;;;;;;1.22;58.07;94593.72;4888131;29;20610;-75
2022/03/04 03:11:35;;;;;;;65.28;32.65;;;;;;;1.29;57.41;94599.69;4903435;29;20036;-75
2022/03/04 03:14:01;;;;;;;71.35;32.83;;;;;;;1.30;57.81;94601.28;4904818;29;20033;-75
2022/03/04 03:16:26;;;;;;;63.92;33.28;;;;;;;1.31;57.45;94592.66;4903333;29;20040;-75
2022/03/04 03:18:52;;;;;;;75.47;33.88;;;;;;;1.27;58.56;94586.28;4903806;29;20032;-75
2022/03/04 03:21:17;;;;;;;56.22;28.45;;;;;;;1.24;58.42;94591.75;4874445;29;20033;-74
2022/03/04 03:23:42;;;;;;;58.88;31.90;;;;;;;1.25;58.08;94599.25;4911405;29;20036;-75
2022/03/04 03:26:08;;;;;;;66.72;32.50;;;;;;;1.11;58.32;94592.38;4903970;29;20043;-75
2022/03/04 03:28:34;;;;;;;58.97;31.85;;;;;;;1.16;58.61;94601.16;4903644;29;20115;-75
2022/03/04 03:31:00;;;;;;;62.83;32.67;;;;;;;1.16;58.59;94603.72;4902652;29;20481;-75
2022/03/04 03:33:25;;;;;;;55.97;29.23;;;;;;;1.20;57.85;94604.94;4905202;29;20060;-75
2022/03/04 03:35:54;;;;;;;53.45;27.40;;;;;;;1.17;57.66;94607.84;4904108;29;20037;-75
2022/03/04 03:38:23;;;;;;;49.83;25.30;;;;;;;1.20;57.63;94604.94;4889007;29;20036;-76
2022/03/04 03:40:48;;;;;;;49.60;29.40;;;;;;;1.22;57.47;94609.06;4902837;29;20044;-75
2022/03/04 03:43:14;;;;;;;53.83;29.92;;;;;;;1.17;57.80;94610.41;4905558;29;20047;-75
2022/03/04 03:45:39;;;;;;;61.08;31.27;;;;;;;1.10;58.04;94601.84;4904624;29;20040;-75
2022/03/04 03:48:05;;;;;;;122.38;54.80;;;;;;;1.08;58.24;94606.34;4911280;29;20040;-75
2022/03/04 03:50:30;;;;;;;126.18;60.25;;;;;;;1.04;58.21;94607.69;4904708;29;20404;-75
2022/03/04 03:52:56;;;;;;;133.65;66.55;;;;;;;1.01;58.93;94602.13;4905210;29;20035;-75
2022/03/04 03:55:21;;;;;;;149.02;68.78;;;;;;;0.96;59.59;94614.66;4904853;29;20107;-75
2022/03/04 03:57:47;;;;;;;138.02;67.40;;;;;;;0.98;58.83;94608.41;4887372;29;20039;-75
2022/03/04 04:00:13;;;;;;;156.52;75.53;;;;;;;0.92;58.70;94609.09;4904544;29;20036;-75
2022/03/04 04:02:39;;;;;;;142.80;72.82;;;;;;;0.93;59.29;94615.81;4887388;29;20048;-75
2022/03/04 04:05:05;;;;;;;140.50;65.80;;;;;;;0.88;59.05;94600.97;4905310;29;20083;-75
2022/03/04 04:07:31;;;;;;;112.28;52.50;;;;;;;0.93;58.76;94610.69;4904009;29;20040;-75
2022/03/04 04:09:56;;;;;;;112.68;53.80;;;;;;;0.83;58.48;94616.09;4904727;29;20047;-75
2022/03/04 04:12:22;;;;;;;108.22;56.30;;;;;;;0.75;58.57;94612.81;4904406;29;20024;-74
2022/03/04 04:14:47;;;;;;;109.35;56.67;;;;;;;0.71;58.83;94606.47;4886544;29;20487;-74
2022/03/04 04:17:13;;;;;;;106.32;53.35;;;;;;;0.85;58.14;94613.34;4903144;29;20513;-75
2022/03/04 04:19:38;;;;;;;116.18;58.60;;;;;;;0.74;58.67;94611.22;4902897;29;20492;-75
2022/03/04 04:22:04;;;;;;;105.93;52.97;;;;;;;0.70;58.57;94613.34;4903176;29;20036;-75
2022/03/04 04:24:29;;;;;;;104.50;53.42;;;;;;;0.66;58.47;94608.75;4902548;29;20044;-75
2022/03/04 04:26:55;;;;;;;111.63;54.63;;;;;;;0.69;58.34;94613.53;4903076;29;20043;-75
2022/03/04 04:29:20;;;;;;;96.85;54.03;;;;;;;0.60;58.84;94616.16;4887291;29;20048;-75
2022/03/04 04:31:45;;;;;;;95.40;53.78;;;;;;;0.49;58.83;94618.34;4903667;29;20029;-75
2022/03/04 04:34:11;;;;;;;102.55;59.90;;;;;;;0.43;59.11;94614.72;4888926;29;20044;-74
2022/03/04 04:36:37;;;;;;;84.80;49.33;;;;;;;0.45;58.94;94623.00;4903148;29;20035;-75
2022/03/04 04:39:03;;;;;;;87.20;48.83;;;;;;;0.48;59.35;94626.97;4903710;29;20052;-75
2022/03/04 04:41:28;;;;;;;52.13;28.38;;;;;;;0.52;58.68;94628.25;4887521;29;20754;-75
2022/03/04 04:43:54;;;;;;;56.80;30.05;;;;;;;0.56;58.93;94629.47;4903590;29;20040;-75
2022/03/04 04:46:19;;;;;;;56.50;30.00;;;;;;;0.53;59.05;94629.81;4871107;29;20040;-75
2022/03/04 04:48:45;;;;;;;66.90;35.05;;;;;;;0.39;59.57;94628.81;4903750;29;20024;-74
2022/03/04 04:51:10;;;;;;;64.10;36.35;;;;;;;0.29;60.13;94641.84;4871766;29;20497;-75
2022/03/04 04:53:36;;;;;;;70.53;37.15;;;;;;;0.37;60.12;94645.31;4910374;29;20024;-75
2022/03/04 04:56:01;;;;;;;67.82;36.15;;;;;;;0.40;59.69;94638.09;4910215;29;20047;-74
2022/03/04 04:58:27;;;;;;;61.83;33.80;;;;;;;0.29;60.07;94643.59;4903184;29;20409;-75
2022/03/04 05:00:55;;;;;;;68.80;36.72;;;;;;;0.32;60.89;94643.25;4909552;29;20048;-75
2022/03/04 05:03:24;;;;;;;60.42;34.05;;;;;;;0.41;59.92;94639.69;4900837;29;20028;-75
2022/03/04 05:05:50;;;;;;;66.10;34.00;;;;;;;0.47;59.63;94638.19;4924833;29;20060;-75
2022/03/04 05:08:16;;;;;;;68.55;34.50;;;;;;;0.46;59.84;94636.59;4885894;29;20037;-75
2022/03/04 05:10:42;;;;;;;64.45;36.33;;;;;;;0.52;59.78;94641.03;4886320;29;20055;-75
2022/03/04 05:13:07;;;;;;;70.50;36.50;;;;;;;0.56;59.09;94635.38;4886516;29;20029;-75
2022/03/04 05:15:33;;;;;;;70.97;37.45;;;;;;;0.64;59.10;94642.16;4902573;29;20163;-75
2022/03/04 05:17:58;;;;;;;70.50;38.88;;;;;;;0.66;59.13;94639.47;4901163;29;20032;-75
2022/03/04 05:20:24;;;;;;;84.63;41.72;;;;;;;0.60;59.14;94636.63;4901865;29;20465;-75
2022/03/04 05:22:50;;;;;;;73.55;41.00;;;;;;;0.68;58.80;94634.97;4886792;29;20036;-75
2022/03/04 05:25:15;;;;;;;86.30;40.53;;;;;;;0.62;59.24;94638.19;4902046;29;20048;-75
2022/03/04 05:27:40;;;;;;;82.53;41.13;;;;;;;0.69;58.85;94634.78;4905249;29;20079;-74
2022/03/04 05:30:06;;;;;;;66.13;36.67;;;;;;;0.81;58.55;94637.69;4896375;29;20593;-75
2022/03/04 05:32:32;;;;;;;63.60;34.70;;;;;;;0.94;57.59;94637.88;4905727;29;20083;-75
2022/03/04 05:34:57;;;;;;;70.88;36.08;;;;;;;1.05;58.12;94644.31;4905606;29;20043;-75
2022/03/04 05:37:23;;;;;;;65.35;35.08;;;;;;;1.11;57.32;94644.41;4904536;29;20028;-75
2022/03/04 05:39:48;;;;;;;72.43;38.78;;;;;;;1.06;56.76;94639.03;4906441;29;20044;-74
2022/03/04 05:42:14;;;;;;;75.13;38.15;;;;;;;1.04;57.56;94643.53;4912490;29;20036;-75
2022/03/04 05:44:39;;;;;;;78.03;40.72;;;;;;;1.07;57.18;94647.50;4904551;29;20488;-75
2022/03/04 05:47:05;;;;;;;85.78;40.33;;;;;;;1.18;56.48;94655.53;4912895;29;20100;-75
2022/03/04 05:49:30;;;;;;;85.00;42.35;;;;;;;1.25;56.34;94650.50;4888699;29;20042;-75
2022/03/04 05:51:56;;;;;;;83.25;41.42;;;;;;;1.30;56.52;94652.50;4904519;29;20048;-75
2022/03/04 05:54:21;;;;;;;107.68;43.95;;;;;;;1.39;56.64;94652.25;4904023;29;20036;-75
2022/03/04 05:56:47;;;;;;;86.88;40.40;;;;;;;1.49;56.04;94654.53;4889227;29;20043;-75
2022/03/04 05:59:12;;;;;;;85.82;39.88;;;;;;;1.56;55.93;94652.81;4904537;29;20564;-76
2022/03/04 06:01:38;;;;;;;102.72;42.10;;;;;;;1.70;55.51;94653.78;4888294;29;20052;-76
2022/03/04 06:04:03;;;;;;;86.30;42.88;;;;;;;1.88;55.82;94653.38;4905790;29;20142;-75
2022/03/04 06:06:28;;;;;;;86.03;41.55;;;;;;;2.17;54.95;94653.25;4903003;29;20599;-76
2022/03/04 06:08:54;;;;;;;104.07;50.22;;;;;;;2.31;54.35;94656.75;4887922;29;20041;-75
2022/03/04 06:11:20;;;;;;;97.70;45.75;;;;;;;2.53;54.52;94654.94;4904420;29;20443;-76
2022/03/04 06:13:45;;;;;;;88.25;43.53;;;;;;;2.87;53.64;94652.41;4906349;29;20036;-76
2022/03/04 06:16:11;;;;;;;89.90;42.15;;;;;;;3.15;53.17;94649.81;4888083;29;20536;-76
2022/03/04 06:18:37;;;;;;;90.93;43.20;;;;;;;3.33;52.08;94646.75;4886895;29;20158;-76
2022/03/04 06:21:03;;;;;;;91.95;41.60;;;;;;;3.55;51.71;94647.41;4903699;29;20424;-76
2022/03/04 06:23:28;;;;;;;89.18;43.00;;;;;;;3.73;51.07;94646.88;4888775;29;20047;-77
2022/03/04 06:25:55;;;;;;;89.32;41.47;;;;;;;3.92;49.65;94646.94;4887093;29;20121;-77
2022/03/04 06:28:21;;;;;;;82.20;41.53;;;;;;;4.00;49.57;94648.53;4912384;29;20131;-77
2022/03/04 06:30:46;;;;;;;80.75;40.38;;;;;;;4.02;49.29;94646.56;4904388;29;20051;-77
2022/03/04 06:33:30;;;;;;;89.20;42.97;;;;;;;4.06;49.03;94642.59;4896360;29;20039;-76
2022/03/04 06:35:58;;;;;;;85.13;41.28;;;;;;;4.12;49.50;94651.34;4910945;29;20039;-76
2022/03/04 06:38:24;;;;;;;84.13;42.65;;;;;;;4.16;48.82;94655.09;4905424;29;20036;-76
2022/03/04 06:40:50;;;;;;;83.20;43.58;;;;;;;4.23;49.20;94653.34;4888192;29;20028;-75
2022/03/04 06:43:15;;;;;;;87.72;44.88;;;;;;;4.27;49.25;94661.47;4873196;29;20107;-76
2022/03/04 06:45:45;;;;;;;79.75;41.65;;;;;;;4.33;48.74;94658.09;4872184;29;20037;-76
2022/03/04 06:48:12;;;;;;;91.28;44.08;;;;;;;4.37;48.50;94669.56;4903071;29;20043;-76
2022/03/04 06:50:37;;;;;;;90.88;43.33;;;;;;;4.35;49.28;94650.97;4888472;29;20092;-76
2022/03/04 06:53:03;;;;;;;86.00;43.60;;;;;;;4.36;49.11;94652.53;4888646;29;20036;-76
2022/03/04 06:55:29;;;;;;;85.10;42.08;;;;;;;4.40;48.59;94661.47;4904064;29;20029;-76
2022/03/04 06:57:55;;;;;;;84.03;43.28;;;;;;;4.32;49.43;94662.44;4904226;29;20103;-76
2022/03/04 07:00:21;;;;;;;80.32;40.88;;;;;;;4.36;48.84;94670.56;4888709;29;20040;-76
2022/03/04 07:02:47;;;;;;;85.32;40.00;;;;;;;4.47;48.99;94668.22;4911849;29;20036;-76
2022/03/04 07:05:13;;;;;;;72.03;39.08;;;;;;;4.62;48.07;94668.00;4886141;29;20037;-76
2022/03/04 07:07:38;;;;;;;67.82;37.35;;;;;;;4.64;48.57;94671.19;4925996;23;20071;-76
2022/03/04 07:10:04;;;;;;;69.55;38.50;;;;;;;4.65;48.11;94672.75;4963891;23;20052;-76
2022/03/04 07:12:30;;;;;;;79.30;43.30;;;;;;;4.73;47.88;94670.00;4941006;23;20048;-79
2022/03/04 07:14:55;;;;;;;82.60;46.22;;;;;;;4.92;47.40;94667.59;4908395;29;20036;-76
2022/03/04 07:17:21;;;;;;;96.10;54.88;;;;;;;4.95;47.51;94665.41;4905458;29;20124;-76
2022/03/04 07:19:46;;;;;;;92.93;52.35;;;;;;;5.12;47.36;94673.53;4888227;29;20512;-76
2022/03/04 07:22:12;;;;;;;88.72;48.35;;;;;;;5.31;47.25;94675.25;4901077;29;20048;-76
2022/03/04 07:24:37;;;;;;;82.20;43.88;;;;;;;5.30;46.63;94675.47;4904619;29;20048;-75
2022/03/04 07:27:03;;;;;;;78.03;45.30;;;;;;;5.47;47.06;94675.81;4903880;29;20028;-76
2022/03/04 07:29:29;;;;;;;81.65;46.78;;;;;;;5.60;46.71;94675.78;4903458;29;20033;-78
2022/03/04 07:31:55;;;;;;;85.97;49.40;;;;;;;5.82;46.20;94679.66;4872521;29;20044;-78
2022/03/04 07:34:23;;;;;;;84.82;48.88;;;;;;;6.07;45.67;94681.56;4887659;29;20079;-76
2022/03/04 07:36:49;;;;;;;103.45;58.53;;;;;;;6.26;45.72;94681.44;4911083;29;20110;-76
2022/03/04 07:39:15;;;;;;;113.70;65.22;;;;;;;6.35;44.91;94674.25;4904561;29;20042;-76
2022/03/04 07:41:40;;;;;;;116.22;68.85;;;;;;;6.54;43.86;94673.31;4901703;29;20027;-76
2022/03/04 07:44:06;;;;;;;110.55;64.30;;;;;;;6.67;44.34;94677.59;4902132;29;20106;-76
2022/03/04 07:46:31;;;;;;;107.93;61.65;;;;;;;6.75;43.45;94679.13;4902261;29;20032;-76
2022/03/04 07:48:57;;;;;;;99.63;60.00;;;;;;;6.83;43.16;94671.09;4886117;29;20052;-76
2022/03/04 07:51:22;;;;;;;117.75;67.00;;;;;;;6.87;43.12;94672.28;4901739;29;20107;-76
2022/03/04 07:53:48;;;;;;;106.85;58.75;;;;;;;6.94;43.05;94667.81;4903044;29;20028;-76
2022/03/04 07:56:13;;;;;;;98.30;58.80;;;;;;;7.06;42.08;94660.97;4888279;29;20055;-75
2022/03/04 07:58:39;;;;;;;96.85;56.72;;;;;;;7.13;42.89;94663.47;4887359;29;20039;-75
2022/03/04 08:01:04;;;;;;;99.20;53.28;;;;;;;7.11;42.48;94662.91;4899844;29;20036;-75
2022/03/04 08:03:29;;;;;;;104.97;53.08;;;;;;;7.06;42.08;94670.50;4886614;29;20032;-76
2022/03/04 08:05:55;;;;;;;93.63;47.03;;;;;;;7.17;41.80;94667.22;4890517;29;20041;-76
2022/03/04 08:08:20;;;;;;;80.95;43.95;;;;;;;7.21;41.66;94671.75;4910942;29;20040;-75
2022/03/04 08:10:46;;;;;;;77.28;42.58;;;;;;;7.06;41.66;94671.31;4885436;29;20064;-75
2022/03/04 08:13:11;;;;;;;77.43;43.80;;;;;;;7.25;40.97;94668.75;4885973;29;20040;-77
2022/03/04 08:15:37;;;;;;;82.55;44.92;;;;;;;7.25;40.69;94669.53;4904455;29;20032;-77
2022/03/04 08:18:02;;;;;;;78.38;35.95;;;;;;;7.44;39.94;94671.13;4902146;29;20420;-76
2022/03/04 08:20:29;;;;;;;52.60;27.83;;;;;;;7.45;38.69;94664.94;4902654;29;20044;-76
2022/03/04 08:22:54;;;;;;;59.92;28.92;;;;;;;7.38;38.92;94674.56;4900920;29;20059;-77
2022/03/04 08:25:19;;;;;;;46.58;25.55;;;;;;;7.29;38.49;94669.88;4903590;29;20041;-76
2022/03/04 08:27:45;;;;;;;49.03;30.10;;;;;;;7.30;39.38;94676.63;4902177;29;20116;-77
2022/03/04 08:30:12;;;;;;;59.35;32.47;;;;;;;7.27;39.04;94687.41;4871407;29;20040;-76
2022/03/04 08:32:38;;;;;;;60.97;31.65;;;;;;;7.17;39.68;94678.38;4887359;29;20401;-76
2022/03/04 08:35:03;;;;;;;58.97;33.60;;;;;;;7.21;39.64;94679.50;4903077;29;20037;-77
2022/03/04 08:37:29;;;;;;;57.58;33.30;;;;;;;7.29;40.09;94678.44;4953756;23;20074;-76
2022/03/04 08:39:57;;;;;;;53.60;31.85;;;;;;;7.39;39.72;94675.38;4920639;29;20509;-77
2022/03/04 08:42:26;;;;;;;56.47;30.95;;;;;;;7.49;39.82;94678.25;4913202;29;20024;-76
2022/03/04 08:44:55;;;;;;;58.30;31.40;;;;;;;7.40;39.53;94677.72;4912133;29;20473;-77
2022/03/04 08:47:21;;;;;;;54.95;31.05;;;;;;;7.39;39.29;94675.38;4913375;29;20049;-77
2022/03/04 08:49:46;;;;;;;59.60;31.13;;;;;;;7.50;39.60;94677.25;4913584;29;20032;-77
2022/03/04 08:52:11;;;;;;;61.67;31.75;;;;;;;7.64;39.26;94676.06;4911891;29;20051;-76
2022/03/04 08:54:37;;;;;;;63.25;28.58;;;;;;;7.75;38.25;94680.53;4911368;29;20035;-76
2022/03/04 08:57:03;;;;;;;42.85;26.35;;;;;;;7.88;38.58;94678.78;4912960;29;20162;-76
2022/03/04 08:59:28;;;;;;;48.92;25.17;;;;;;;7.94;37.57;94683.09;4911664;29;20416;-76
2022/03/04 09:01:54;;;;;;;45.95;26.35;;;;;;;8.04;37.51;94683.38;4912071;29;20087;-76
2022/03/04 09:04:19;;;;;;;57.25;27.42;;;;;;;8.13;37.50;94680.28;4912713;29;20058;-77
2022/03/04 09:06:45;;;;;;;55.25;29.02;;;;;;;8.21;38.04;94673.97;4913178;29;20083;-76
2022/03/04 09:09:11;;;;;;;53.63;29.20;;;;;;;8.32;37.63;94672.44;4913293;29;20036;-76
2022/03/04 09:11:36;;;;;;;57.53;28.30;;;;;;;8.37;37.68;94672.59;4911640;29;20028;-76
2022/03/04 09:14:03;;;;;;;61.00;29.98;;;;;;;8.43;36.76;94669.91;4912651;29;20036;-77
2022/03/04 09:16:29;;;;;;;55.30;29.10;;;;;;;8.50;36.93;94666.44;4909476;29;20047;-77
2022/03/04 09:18:54;;;;;;;51.63;29.30;;;;;;;8.58;36.47;94666.09;4912879;29;20045;-77
2022/03/04 09:21:57;;;;;;;61.13;28.98;;;;;;;8.47;36.23;94674.66;4908020;29;20247;-77
2022/03/04 09:24:24;;;;;;;59.40;28.65;;;;;;;8.45;36.22;94666.31;4903213;29;20103;-76
2022/03/04 09:26:49;;;;;;;49.75;29.15;;;;;;;8.55;36.82;94658.78;4911842;29;20036;-76
2022/03/04 09:29:15;;;;;;;50.03;29.27;;;;;;;8.62;36.98;94668.06;4912258;29;20044;-76
2022/03/04 09:31:40;;;;;;;56.50;28.95;;;;;;;8.47;36.48;94665.09;4895028;29;20471;-77
2022/03/04 09:34:07;;;;;;;52.33;28.15;;;;;;;8.48;36.85;94665.88;4912410;29;20044;-77
2022/03/04 09:36:32;;;;;;;52.22;28.98;;;;;;;8.53;36.37;94663.41;4895402;29;20044;-77
2022/03/04 09:38:58;;;;;;;49.67;29.40;;;;;;;8.59;36.78;94676.25;4894678;29;20401;-76
2022/03/04 09:41:25;;;;;;;52.22;27.08;;;;;;;8.67;36.60;94672.56;4893733;29;20468;-76
2022/03/04 09:43:51;;;;;;;54.08;29.63;;;;;;;8.69;36.62;94668.72;4909185;29;20023;-77
2022/03/04 09:46:19;;;;;;;67.03;32.67;;;;;;;8.75;35.80;94669.63;4909945;29;20378;-76
2022/03/04 09:48:45;;;;;;;48.95;28.40;;;;;;;8.78;36.07;94668.38;4893332;29;20079;-76
2022/03/04 09:51:10;;;;;;;60.10;30.98;;;;;;;8.79;36.13;94664.81;4878532;29;20036;-76
2022/03/04 09:53:36;;;;;;;56.55;30.65;;;;;;;8.72;36.73;94672.66;4910336;29;20033;-76
2022/03/04 09:56:01;;;;;;;57.88;30.83;;;;;;;8.79;36.34;94670.78;4879096;29;20111;-76
2022/03/04 09:58:27;;;;;;;57.28;30.17;;;;;;;8.70;35.89;94670.31;4910616;29;20060;-76
2022/03/04 10:00:52;;;;;;;60.85;31.98;;;;;;;8.70;36.03;94665.13;4910928;29;20032;-76
2022/03/04 10:03:30;;;;;;;54.03;32.35;;;;;;;8.67;36.15;94662.19;4911796;29;20085;-76
2022/03/04 10:05:56;;;;;;;58.17;30.98;;;;;;;8.66;36.73;94655.44;4910114;29;20036;-76
2022/03/04 10:08:22;;;;;;;61.03;31.98;;;;;;;8.73;36.95;94650.91;4894098;29;20040;-76
2022/03/04 10:10:51;;;;;;;53.92;30.85;;;;;;;8.87;37.65;94647.09;4894732;29;20036;-76
2022/03/04 10:13:17;;;;;;;48.50;28.23;;;;;;;8.77;36.20;94646.84;4910393;29;20062;-76
2022/03/04 10:15:54;;;;;;;66.68;33.30;;;;;;;8.66;36.85;94645.84;4896196;29;20683;-76
2022/03/04 10:18:25;;;;;;;59.58;31.23;;;;;;;8.65;36.73;94638.31;4913358;29;20036;-77
2022/03/04 10:20:50;;;;;;;58.80;29.80;;;;;;;8.61;35.91;94634.56;4913777;29;20519;-76
2022/03/04 10:23:18;;;;;;;61.78;31.98;;;;;;;8.74;36.67;94639.53;4897567;29;20040;-76
2022/03/04 10:25:49;;;;;;;61.20;33.40;;;;;;;8.78;36.28;94627.69;4898206;29;20470;-77
2022/03/04 10:28:15;;;;;;;61.60;32.08;;;;;;;8.90;36.18;94625.13;4897811;29;20032;-76
2022/03/04 10:30:46;;;;;;;54.10;30.83;;;;;;;8.99;36.14;94623.78;4897944;29;20032;-76
2022/03/04 10:33:28;;;;;;;63.72;31.13;;;;;;;9.04;35.69;94616.09;4913970;29;20559;-77
2022/03/04 10:36:10;;;;;;;54.08;27.92;;;;;;;9.11;35.94;94614.19;4898686;29;20428;-76
2022/03/04 10:38:36;;;;;;;62.17;28.13;;;;;;;9.20;36.14;94622.41;4889668;29;20044;-77
2022/03/04 10:41:19;;;;;;;51.17;29.23;;;;;;;9.26;36.08;94616.28;4896913;29;20433;-77
2022/03/04 10:43:45;;;;;;;58.83;30.48;;;;;;;9.30;35.56;94609.66;4896930;29;20067;-77
2022/03/04 10:46:11;;;;;;;48.72;29.20;;;;;;;9.39;35.72;94613.47;4913121;29;20475;-76
2022/03/04 10:48:36;;;;;;;53.50;30.02;;;;;;;9.50;36.04;94601.47;4913168;29;20032;-76
2022/03/04 10:51:04;;;;;;;79.82;33.45;;;;;;;9.51;36.52;94606.44;4897711;29;20036;-76
2022/03/04 10:53:41;;;;;;;47.97;27.67;;;;;;;9.44;36.53;94600.59;4914606;29;20044;-76
2022/03/04 10:56:07;;;;;;;47.03;26.08;;;;;;;9.35;36.80;94595.97;4912756;29;20504;-76
2022/03/04 10:58:37;;;;;;;53.85;24.52;;;;;;;9.28;36.00;94590.94;4897147;29;20070;-77
2022/03/04 11:01:08;;;;;;;43.28;25.30;;;;;;;9.28;36.28;94590.94;4917489;29;20032;-77
2022/03/04 11:03:34;;;;;;;38.33;23.48;;;;;;;9.30;35.63;94587.09;4913548;29;20370;-77
2022/03/04 11:06:11;;;;;;;43.20;23.55;;;;;;;9.34;35.46;94584.81;4895930;29;20032;-77
2022/03/04 11:08:37;;;;;;;38.55;21.90;;;;;;;9.41;36.20;94575.09;4911935;29;20047;-76
2022/03/04 11:11:03;;;;;;;39.35;22.33;;;;;;;9.51;36.52;94580.47;4913624;29;20483;-76
2022/03/04 11:13:34;;;;;;;35.53;16.83;;;;;;;9.62;35.55;94571.88;4912726;29;20055;-76
2022/03/04 11:16:00;;;;;;;30.83;16.60;;;;;;;9.70;35.18;94570.72;4912956;29;20034;-76
2022/03/04 11:18:26;;;;;;;34.38;15.27;;;;;;;9.76;34.58;94562.00;4914853;29;20396;-76
2022/03/04 11:20:57;;;;;;;28.92;12.23;;;;;;;9.76;34.08;94563.78;4912592;29;20032;-76